Time;durP1;ratioP1;P1;durP2;ratioP2;P2;SDS_P1;SDS_P2;PMS_P1;PMS_P2;Temp;Humidity;BMP_temperature;BMP_pressure;BME280_temperature;BME280_humidity;BME280_pressure;Samples;Min_cycle;Max_cycle;Signal;HPM_P1;HPM_P2
2022/09/21 00:00:32;;;;;;;18.70;9.73;;;;;;;8.93;100.00;98370.80;1780552;80;21001;-86
2022/09/21 00:02:59;;;;;;;13.22;9.35;;;;;;;8.95;100.00;98372.70;1780840;80;21025;-85
2022/09/21 00:05:25;;;;;;;16.57;9.78;;;;;;;8.96;100.00;98369.73;1780809;80;20854;-87
2022/09/21 00:07:51;;;;;;;12.45;8.65;;;;;;;9.01;100.00;98367.61;1780745;80;20858;-85
2022/09/21 00:10:19;;;;;;;14.28;9.95;;;;;;;9.01;100.00;98366.27;1780816;80;21328;-84
2022/09/21 00:12:47;;;;;;;14.73;9.20;;;;;;;9.01;100.00;98366.27;1780760;80;21001;-86
2022/09/21 00:15:16;;;;;;;14.85;8.40;;;;;;;9.02;100.00;98367.34;1780692;80;21001;-88
2022/09/21 00:17:42;;;;;;;14.07;9.28;;;;;;;9.01;100.00;98367.61;1780600;80;21056;-85
2022/09/21 00:20:08;;;;;;;13.93;10.03;;;;;;;8.96;100.00;98362.98;1780532;80;20869;-88
2022/09/21 00:22:34;;;;;;;15.70;9.58;;;;;;;8.94;100.00;98368.38;1780938;80;21500;-85
2022/09/21 00:25:02;;;;;;;48.75;23.10;;;;;;;8.94;100.00;98370.53;1782245;80;21444;-88
2022/09/21 00:27:29;;;;;;;34.58;18.75;;;;;;;8.95;100.00;98367.30;1782205;80;21020;-88
2022/09/21 00:29:56;;;;;;;25.82;16.17;;;;;;;8.99;100.00;98371.13;1774359;80;21470;-89
2022/09/21 00:32:25;;;;;;;27.45;15.68;;;;;;;8.94;100.00;98365.13;1773870;80;21009;-86
2022/09/21 00:34:51;;;;;;;21.57;12.78;;;;;;;9.00;100.00;98365.98;1744598;80;21083;-85
2022/09/21 00:37:18;;;;;;;21.62;11.85;;;;;;;8.99;100.00;98371.94;1773628;80;21698;-88
2022/09/21 00:39:45;;;;;;;20.90;12.85;;;;;;;8.99;100.00;98365.17;1773928;80;21469;-88
2022/09/21 00:42:32;;;;;;;21.30;11.70;;;;;;;9.04;100.00;98365.73;1773581;80;21037;-85
2022/09/21 00:44:58;;;;;;;18.60;12.07;;;;;;;8.98;100.00;98364.09;1773975;80;21004;-88
2022/09/21 00:47:39;;;;;;;17.40;10.53;;;;;;;9.03;100.00;98373.56;1743814;80;21111;-88
2022/09/21 00:50:10;;;;;;;20.72;10.25;;;;;;;9.03;100.00;98373.56;1773842;80;21545;-88
2022/09/21 00:52:39;;;;;;;16.17;11.12;;;;;;;9.03;100.00;98376.27;1769409;80;21049;-88
2022/09/21 00:55:14;;;;;;;18.15;11.33;;;;;;;9.01;100.00;98377.08;1769354;80;21040;-88
2022/09/21 00:57:40;;;;;;;15.55;10.23;;;;;;;8.99;100.00;98376.53;1773862;80;21512;-85
2022/09/21 01:00:08;;;;;;;14.90;9.20;;;;;;;8.99;100.00;98377.87;1774032;80;21537;-86
2022/09/21 01:02:36;;;;;;;15.43;10.48;;;;;;;8.97;100.00;98381.36;1773930;80;21060;-86
2022/09/21 01:05:05;;;;;;;15.37;10.50;;;;;;;8.93;100.00;98377.56;1773752;80;21016;-87
2022/09/21 01:07:32;;;;;;;14.90;9.70;;;;;;;8.90;100.00;98372.69;1774009;80;21064;-85
2022/09/21 01:10:02;;;;;;;16.23;10.43;;;;;;;8.91;100.00;98377.02;1774051;80;20977;-86
2022/09/21 01:12:59;;;;;;;13.58;8.10;;;;;;;8.91;100.00;98384.58;1773588;80;21088;-85
2022/09/21 01:15:55;;;;;;;15.20;9.05;;;;;;;8.92;100.00;98378.64;1773621;80;21426;-89
2022/09/21 01:18:35;;;;;;;12.70;8.83;;;;;;;8.86;100.00;98379.13;1773405;80;21009;-85
2022/09/21 01:21:23;;;;;;;14.13;9.10;;;;;;;8.82;100.00;98380.73;1773788;80;21001;-88
2022/09/21 01:24:22;;;;;;;18.87;10.70;;;;;;;8.83;100.00;98380.20;1782133;80;21402;-88
2022/09/21 01:27:03;;;;;;;14.53;9.15;;;;;;;8.85;100.00;98385.61;1782212;80;21821;-87
2022/09/21 01:29:46;;;;;;;15.45;8.75;;;;;;;8.88;100.00;98388.33;1775600;80;21068;-88
2022/09/21 01:32:35;;;;;;;11.80;8.45;;;;;;;8.87;100.00;98388.05;1773699;80;21436;-88
2022/09/21 01:35:24;;;;;;;13.62;8.85;;;;;;;8.83;100.00;98389.66;1773988;80;21036;-88
2022/09/21 01:37:55;;;;;;;13.85;8.38;;;;;;;8.83;100.00;98393.71;1773767;80;21009;-88
2022/09/21 01:40:44;;;;;;;12.95;9.00;;;;;;;8.86;100.00;98401.28;1773941;80;21521;-88
2022/09/21 01:43:14;;;;;;;13.58;8.15;;;;;;;8.88;100.00;98404.54;1773693;80;20981;-85
2022/09/21 01:45:45;;;;;;;12.73;8.43;;;;;;;8.88;100.00;98401.30;1773854;79;22491;-85
2022/09/21 01:48:11;;;;;;;13.80;9.80;;;;;;;8.88;100.00;98407.23;1773724;80;21057;-88
2022/09/21 01:50:47;;;;;;;12.50;8.70;;;;;;;8.89;100.00;98407.55;1769199;80;20878;-88
2022/09/21 01:53:39;;;;;;;14.15;9.33;;;;;;;8.90;100.00;98403.77;1743475;80;21126;-88
2022/09/21 01:56:21;;;;;;;14.75;10.23;;;;;;;8.91;100.00;98406.20;1773852;80;21067;-88
2022/09/21 01:59:01;;;;;;;17.23;9.78;;;;;;;8.87;100.00;98399.67;1773747;80;21068;-88
2022/09/21 02:01:27;;;;;;;17.77;10.23;;;;;;;8.87;100.00;98400.20;1773836;80;21492;-88
2022/09/21 02:04:03;;;;;;;13.83;8.28;;;;;;;8.88;100.00;98400.48;1773806;80;21453;-88
2022/09/21 02:06:29;;;;;;;14.95;9.65;;;;;;;8.87;100.00;98396.97;1773749;80;21122;-88
2022/09/21 02:08:55;;;;;;;11.75;8.03;;;;;;;8.89;100.00;98402.14;1773709;80;21008;-89
2022/09/21 02:11:21;;;;;;;12.82;8.68;;;;;;;8.90;100.00;98401.06;1773989;80;20940;-87
2022/09/21 02:13:49;;;;;;;11.33;8.50;;;;;;;8.90;100.00;98401.88;1773827;80;20993;-85
2022/09/21 02:16:38;;;;;;;16.07;10.00;;;;;;;8.90;100.00;98394.30;1773884;80;21099;-85
2022/09/21 02:19:34;;;;;;;12.28;8.68;;;;;;;8.92;100.00;98404.31;1773777;80;21181;-88
2022/09/21 02:22:17;;;;;;;12.37;9.10;;;;;;;8.94;100.00;98401.63;1774171;80;21064;-88
2022/09/21 02:24:56;;;;;;;15.03;9.40;;;;;;;8.95;100.00;98405.14;1782522;80;22274;-86
2022/09/21 02:27:46;;;;;;;17.00;10.32;;;;;;;8.93;100.00;98393.77;1782498;80;28089;-87
2022/09/21 02:30:18;;;;;;;13.88;9.68;;;;;;;9.03;100.00;98408.70;1782472;80;21035;-88
2022/09/21 02:33:09;;;;;;;15.30;10.23;;;;;;;9.04;100.00;98403.58;1782284;80;21087;-85
2022/09/21 02:35:56;;;;;;;18.55;11.05;;;;;;;9.05;100.00;98409.25;1782587;80;21075;-88
2022/09/21 02:38:45;;;;;;;19.40;11.85;;;;;;;8.98;100.00;98410.05;1782396;80;21032;-85
2022/09/21 02:41:18;;;;;;;17.45;12.18;;;;;;;8.98;100.00;98412.20;1782197;80;20996;-88
2022/09/21 02:44:03;;;;;;;21.55;12.18;;;;;;;9.02;100.00;98411.13;1782402;80;21052;-88
2022/09/21 02:46:37;;;;;;;17.15;12.88;;;;;;;9.04;100.00;98409.80;1782478;80;21040;-88
2022/09/21 02:49:08;;;;;;;19.55;13.62;;;;;;;9.06;100.00;98410.91;1782257;80;20961;-88
2022/09/21 02:51:46;;;;;;;23.60;15.45;;;;;;;9.05;100.00;98410.61;1782463;80;21031;-86
2022/09/21 02:54:14;;;;;;;21.77;13.18;;;;;;;9.08;100.00;98413.34;1782445;80;20996;-85
2022/09/21 02:56:40;;;;;;;23.27;15.40;;;;;;;9.08;100.00;98418.22;1782573;80;20981;-88
2022/09/21 02:59:07;;;;;;;22.30;14.80;;;;;;;9.04;100.00;98417.91;1782275;80;21329;-88
2022/09/21 03:01:33;;;;;;;20.08;14.73;;;;;;;9.04;100.00;98421.95;1782469;80;21016;-88
2022/09/21 03:03:59;;;;;;;20.40;14.53;;;;;;;9.06;100.00;98424.42;1782383;80;21007;-86
2022/09/21 03:06:25;;;;;;;29.40;17.15;;;;;;;9.07;100.00;98415.23;1782484;80;21491;-88
2022/09/21 03:08:51;;;;;;;22.27;15.38;;;;;;;9.09;100.00;98419.03;1782404;80;20925;-88
2022/09/21 03:11:18;;;;;;;22.48;16.12;;;;;;;9.12;100.00;98415.25;1782450;80;21940;-87
2022/09/21 03:13:44;;;;;;;20.48;14.33;;;;;;;9.14;100.00;98421.20;1782334;80;20998;-85
2022/09/21 03:16:10;;;;;;;23.18;15.00;;;;;;;9.16;100.00;98425.03;1782345;80;20964;-88
2022/09/21 03:18:36;;;;;;;22.77;16.27;;;;;;;9.17;100.00;98420.70;1778176;80;20950;-86
2022/09/21 03:21:02;;;;;;;23.65;16.60;;;;;;;9.18;100.00;98426.39;1782514;80;20882;-85
2022/09/21 03:23:28;;;;;;;21.45;14.87;;;;;;;9.16;100.00;98428.55;1781283;80;21115;-86
2022/09/21 03:25:54;;;;;;;23.30;16.48;;;;;;;9.16;100.00;98423.67;1780664;80;20838;-89
2022/09/21 03:28:20;;;;;;;21.97;15.68;;;;;;;9.18;100.00;98422.87;1781332;80;20885;-85
2022/09/21 03:30:50;;;;;;;26.37;17.40;;;;;;;9.21;100.00;98433.16;1782670;80;21571;-88
2022/09/21 03:33:18;;;;;;;23.73;14.70;;;;;;;9.19;100.00;98431.25;1782225;80;21448;-85
2022/09/21 03:35:44;;;;;;;25.10;16.97;;;;;;;9.19;100.00;98430.72;1782545;80;21031;-88
2022/09/21 03:38:10;;;;;;;20.77;15.53;;;;;;;9.17;100.00;98437.47;1782045;80;21020;-87
2022/09/21 03:40:36;;;;;;;23.95;14.78;;;;;;;9.17;100.00;98438.28;1782587;80;21494;-87
2022/09/21 03:43:02;;;;;;;19.57;14.18;;;;;;;9.14;100.00;98444.19;1782345;80;21550;-88
2022/09/21 03:45:28;;;;;;;23.07;16.50;;;;;;;9.13;100.00;98444.45;1782643;80;20869;-85
2022/09/21 03:47:56;;;;;;;25.32;17.50;;;;;;;9.07;100.00;98448.22;1782265;80;21146;-88
2022/09/21 03:50:24;;;;;;;20.70;14.45;;;;;;;9.09;100.00;98450.93;1781797;80;21008;-88
2022/09/21 03:52:50;;;;;;;23.57;14.90;;;;;;;9.11;100.00;98441.20;1782359;80;21452;-85
2022/09/21 03:55:16;;;;;;;19.17;14.05;;;;;;;9.06;100.00;98446.05;1782349;80;20916;-88
2022/09/21 03:57:42;;;;;;;19.65;13.68;;;;;;;9.04;100.00;98448.98;1782080;80;20897;-87
2022/09/21 04:00:09;;;;;;;21.20;15.08;;;;;;;9.00;100.00;98443.84;1782582;80;21316;-85
2022/09/21 04:02:39;;;;;;;21.95;14.33;;;;;;;9.00;100.00;98447.89;1777372;79;21508;-85
2022/09/21 04:05:06;;;;;;;20.68;14.33;;;;;;;9.00;100.00;98458.70;1782754;80;21434;-88
2022/09/21 04:07:33;;;;;;;22.75;15.00;;;;;;;8.95;100.00;98449.73;1782283;80;21005;-88
2022/09/21 04:10:00;;;;;;;24.45;13.90;;;;;;;8.96;100.00;98454.06;1782514;80;20992;-85
2022/09/21 04:12:26;;;;;;;24.50;14.80;;;;;;;8.95;100.00;98463.25;1782388;80;21654;-85
2022/09/21 04:14:52;;;;;;;23.77;15.18;;;;;;;8.95;100.00;98461.89;1782705;80;20877;-86
2022/09/21 04:17:19;;;;;;;25.20;15.43;;;;;;;8.96;100.00;98462.17;1782314;80;20931;-88
2022/09/21 04:19:44;;;;;;;28.20;18.27;;;;;;;8.95;100.00;98461.36;1782671;80;21449;-87
2022/09/21 04:22:11;;;;;;;25.62;16.90;;;;;;;8.96;100.00;98458.92;1782308;79;20858;-86
2022/09/21 04:24:39;;;;;;;26.97;15.63;;;;;;;8.98;100.00;98462.75;1780856;80;20980;-87
2022/09/21 04:27:08;;;;;;;26.35;19.30;;;;;;;8.91;100.00;98464.84;1780995;80;21032;-88
2022/09/21 04:29:34;;;;;;;24.07;15.85;;;;;;;8.92;100.00;98471.34;1751897;80;21000;-88
2022/09/21 04:32:01;;;;;;;23.62;17.40;;;;;;;8.94;100.00;98469.19;1782318;79;21429;-86
2022/09/21 04:34:27;;;;;;;22.87;17.25;;;;;;;8.91;100.00;98468.36;1782643;80;20997;-86
2022/09/21 04:36:53;;;;;;;22.95;14.10;;;;;;;8.89;100.00;98471.87;1782503;80;21013;-88
2022/09/21 04:39:19;;;;;;;22.95;14.80;;;;;;;8.83;100.00;98478.30;1782594;80;21459;-88
2022/09/21 04:41:45;;;;;;;21.30;15.32;;;;;;;8.87;100.00;98473.17;1782415;79;20901;-88
2022/09/21 04:44:11;;;;;;;18.30;13.30;;;;;;;8.81;100.00;98477.74;1782262;80;20928;-85
2022/09/21 04:46:37;;;;;;;19.05;13.03;;;;;;;8.80;100.00;98480.67;1782659;80;20865;-88
2022/09/21 04:49:03;;;;;;;22.45;14.35;;;;;;;8.79;100.00;98484.45;1782395;80;20991;-88
2022/09/21 04:51:30;;;;;;;21.23;13.13;;;;;;;8.76;100.00;98487.14;1782427;79;21005;-87
2022/09/21 04:53:56;;;;;;;18.95;13.95;;;;;;;8.73;100.00;98492.53;1782385;80;20992;-85
2022/09/21 04:56:22;;;;;;;20.32;14.78;;;;;;;8.70;100.00;98492.21;1782484;80;20905;-85
2022/09/21 04:58:48;;;;;;;20.75;14.73;;;;;;;8.71;100.00;98493.84;1782339;80;20956;-85
2022/09/21 05:01:14;;;;;;;22.95;15.13;;;;;;;8.72;100.00;98488.73;1782509;80;21175;-88
2022/09/21 05:03:39;;;;;;;23.22;16.05;;;;;;;8.71;100.00;98498.70;1782225;80;20980;-85
2022/09/21 05:06:06;;;;;;;23.12;15.18;;;;;;;8.71;100.00;98492.48;1782615;80;21539;-86
2022/09/21 05:11:20;;;;;;;21.35;14.03;;;;;;;8.68;100.00;98494.36;1778433;79;20996;-85
2022/09/21 05:13:46;;;;;;;22.05;14.55;;;;;;;8.70;100.00;98499.78;1768963;80;20989;-89
2022/09/21 05:16:13;;;;;;;22.27;14.95;;;;;;;8.73;100.00;98497.13;1768551;81;21048;-85
2022/09/21 05:18:39;;;;;;;27.07;15.75;;;;;;;8.79;100.00;98497.96;1768023;80;21028;-85
2022/09/21 05:21:06;;;;;;;23.35;15.55;;;;;;;8.79;100.00;98497.96;1775804;80;21016;-85
2022/09/21 05:23:32;;;;;;;26.15;15.70;;;;;;;8.80;100.00;98500.94;1780555;80;20988;-85
2022/09/21 05:25:58;;;;;;;21.62;14.63;;;;;;;8.71;100.00;98504.11;1779507;79;20925;-85
2022/09/21 05:28:25;;;;;;;23.45;15.93;;;;;;;8.67;100.00;98508.94;1775438;79;20997;-88
2022/09/21 05:31:05;;;;;;;25.90;17.40;;;;;;;8.60;100.00;98507.79;1817829;79;21002;-88
2022/09/21 05:33:31;;;;;;;25.82;15.43;;;;;;;8.64;100.00;98511.62;1817273;79;21010;-89
2022/09/21 05:36:11;;;;;;;22.67;14.45;;;;;;;8.64;100.00;98510.27;1817691;79;20998;-85
2022/09/21 05:38:38;;;;;;;25.95;15.53;;;;;;;8.69;100.00;98513.55;1811512;79;21129;-86
2022/09/21 05:41:05;;;;;;;20.08;14.23;;;;;;;8.63;100.00;98511.86;1796791;79;21028;-86
2022/09/21 05:43:32;;;;;;;23.85;16.75;;;;;;;8.66;100.00;98518.94;1775254;80;20978;-85
2022/09/21 05:46:09;;;;;;;23.50;16.15;;;;;;;8.64;100.00;98515.68;1783118;79;21008;-85
2022/09/21 05:48:49;;;;;;;25.55;16.27;;;;;;;8.70;100.00;98525.98;1780851;80;20996;-86
2022/09/21 05:51:35;;;;;;;27.98;19.90;;;;;;;8.65;100.00;98524.59;1782242;80;21837;-86
2022/09/21 05:54:22;;;;;;;25.62;17.02;;;;;;;8.62;100.00;98523.20;1782243;80;21048;-89
2022/09/21 05:56:55;;;;;;;24.77;16.35;;;;;;;8.65;100.00;98524.59;1780952;80;21451;-89
2022/09/21 06:00:01;;;;;;;21.68;15.60;;;;;;;8.64;100.00;98525.14;1770218;80;20964;-88
2022/09/21 06:02:41;;;;;;;27.15;17.07;;;;;;;8.59;100.00;98525.61;1713533;82;21473;-88
2022/09/21 06:05:11;;;;;;;22.80;15.28;;;;;;;8.55;100.00;98519.09;1720328;83;21308;-88
2022/09/21 06:07:37;;;;;;;22.75;15.38;;;;;;;8.58;100.00;98524.80;1724780;81;21060;-85
2022/09/21 06:10:04;;;;;;;23.32;15.10;;;;;;;8.66;100.00;98523.52;1720121;81;21221;-85
2022/09/21 06:12:29;;;;;;;27.32;16.15;;;;;;;8.72;100.00;98524.67;1717006;81;21070;-88
2022/09/21 06:14:55;;;;;;;23.57;14.35;;;;;;;8.76;100.00;98526.32;1707079;81;20921;-85
2022/09/21 06:17:21;;;;;;;24.55;16.17;;;;;;;8.82;100.00;98522.61;1724518;81;20988;-88
2022/09/21 06:19:47;;;;;;;25.70;16.75;;;;;;;8.90;100.00;98524.84;1736117;80;21503;-85
2022/09/21 06:22:13;;;;;;;24.98;15.78;;;;;;;9.00;100.00;98524.12;1736196;80;20916;-88
2022/09/21 06:24:39;;;;;;;23.35;15.43;;;;;;;9.09;100.00;98528.52;1726012;81;21470;-86
2022/09/21 06:27:05;;;;;;;21.35;14.30;;;;;;;9.15;100.00;98532.36;1749561;80;20871;-88
2022/09/21 06:29:31;;;;;;;21.95;14.20;;;;;;;9.12;100.00;98526.09;1745906;80;21321;-85
2022/09/21 06:31:58;;;;;;;20.68;14.63;;;;;;;9.21;100.00;98524.55;1751635;80;20928;-87
2022/09/21 06:34:24;;;;;;;23.62;14.75;;;;;;;9.29;100.00;98521.91;1766177;80;21186;-85
2022/09/21 06:36:50;;;;;;;21.35;16.00;;;;;;;9.36;100.00;98526.56;1770438;80;21013;-85
2022/09/21 06:39:16;;;;;;;26.73;16.73;;;;;;;9.44;100.00;98523.37;1739362;80;20878;-85
2022/09/21 06:41:42;;;;;;;23.70;17.10;;;;;;;9.54;100.00;98524.80;1742614;80;21313;-88
2022/09/21 06:44:08;;;;;;;21.42;13.45;;;;;;;9.63;100.00;98530.53;1772516;79;20936;-88
2022/09/21 06:46:34;;;;;;;19.52;12.75;;;;;;;9.70;100.00;98534.38;1774568;79;21005;-88
2022/09/21 06:49:00;;;;;;;15.15;10.38;;;;;;;9.61;100.00;98540.27;1780089;80;21464;-88
2022/09/21 06:51:26;;;;;;;16.50;11.22;;;;;;;9.64;100.00;98538.11;1780093;79;20978;-89
2022/09/21 06:53:56;;;;;;;16.62;10.80;;;;;;;9.63;100.00;98541.36;1756680;79;21109;-89
2022/09/21 06:56:23;;;;;;;14.75;11.40;;;;;;;9.61;100.00;98539.45;1802419;79;21030;-85
2022/09/21 06:58:51;;;;;;;13.85;9.83;;;;;;;9.65;100.00;98550.02;1789258;79;21062;-89
2022/09/21 07:01:17;;;;;;;12.63;10.10;;;;;;;9.87;100.00;98547.19;1787342;78;21062;-85
2022/09/21 07:03:43;;;;;;;13.20;9.00;;;;;;;9.98;100.00;98552.11;1784735;78;21442;-86
2022/09/21 07:06:10;;;;;;;13.38;9.65;;;;;;;9.97;100.00;98551.84;1785560;78;21045;-88
2022/09/21 07:08:38;;;;;;;14.50;9.78;;;;;;;9.90;100.00;98552.89;1778330;80;21052;-85
2022/09/21 07:11:05;;;;;;;12.85;9.68;;;;;;;9.90;100.00;98560.19;1787319;78;21504;-85
2022/09/21 07:13:31;;;;;;;14.45;8.40;;;;;;;9.88;100.00;98557.75;1788072;78;21036;-89
2022/09/21 07:15:57;;;;;;;12.35;9.35;;;;;;;9.83;100.00;98556.93;1787893;78;21170;-85
2022/09/21 07:18:23;;;;;;;12.50;9.18;;;;;;;9.86;100.00;98558.56;1785224;79;21000;-85
2022/09/21 07:20:48;;;;;;;16.25;9.20;;;;;;;9.90;100.00;98556.12;1793976;78;20894;-85
2022/09/21 07:23:16;;;;;;;13.10;9.43;;;;;;;9.97;100.00;98556.72;1789948;78;20947;-88
2022/09/21 07:25:51;;;;;;;13.13;8.63;;;;;;;9.98;100.00;98566.47;1783589;79;21027;-88
2022/09/21 07:28:17;;;;;;;12.23;9.43;;;;;;;10.03;100.00;98562.45;1796455;78;21446;-85
2022/09/21 07:30:43;;;;;;;11.95;8.40;;;;;;;10.12;100.00;98570.88;1772996;79;21103;-88
2022/09/21 07:33:09;;;;;;;12.37;9.13;;;;;;;10.17;100.00;98575.80;1778285;79;20955;-85
2022/09/21 07:35:35;;;;;;;11.03;7.97;;;;;;;10.34;100.00;98570.73;1768991;79;20933;-85
2022/09/21 07:38:04;;;;;;;10.58;7.85;;;;;;;10.45;100.00;98574.59;1780281;79;21616;-85
2022/09/21 07:40:30;;;;;;;12.25;8.23;;;;;;;10.54;100.00;98573.53;1786170;78;21021;-85
2022/09/21 07:42:59;;;;;;;11.20;7.55;;;;;;;10.25;100.00;98573.67;1760554;79;21780;-89
2022/09/21 07:45:26;;;;;;;12.03;9.33;;;;;;;10.17;100.00;98578.50;1766428;80;21035;-89
2022/09/21 07:47:55;;;;;;;10.35;8.00;;;;;;;10.06;100.00;98581.41;1784003;79;21029;-85
2022/09/21 07:50:21;;;;;;;10.63;6.60;;;;;;;10.18;100.00;98578.78;1776749;79;20998;-85
2022/09/21 07:52:47;;;;;;;11.33;7.12;;;;;;;10.15;100.00;98578.47;1776532;79;20957;-85
2022/09/21 07:55:14;;;;;;;13.10;7.30;;;;;;;10.04;100.00;98583.56;1772125;78;21156;-88
2022/09/21 08:00:24;;;;;;;12.70;7.95;;;;;;;10.29;100.00;98584.27;1783240;79;21096;-87
2022/09/21 08:02:50;;;;;;;11.65;6.78;;;;;;;10.25;100.00;98584.50;1793947;78;21127;-86
2022/09/21 08:05:16;;;;;;;13.72;8.08;;;;;;;10.42;100.00;98575.64;1790932;78;21318;-86
2022/09/21 08:07:42;;;;;;;11.22;7.25;;;;;;;10.41;100.00;98585.66;1775936;79;21133;-88
2022/09/21 08:10:09;;;;;;;12.35;8.55;;;;;;;10.40;100.00;98589.45;1784986;79;20955;-89
2022/09/21 08:12:34;;;;;;;12.07;7.50;;;;;;;10.23;100.00;98592.90;1782986;79;21445;-88
2022/09/21 08:15:00;;;;;;;11.75;7.33;;;;;;;10.25;100.00;98584.50;1793389;79;21570;-89
2022/09/21 08:17:26;;;;;;;9.70;7.37;;;;;;;10.21;100.00;98586.91;1787529;79;20984;-85
2022/09/21 08:19:53;;;;;;;10.95;7.10;;;;;;;10.17;100.00;98593.40;1788684;78;21362;-85
2022/09/21 08:22:24;;;;;;;11.45;7.83;;;;;;;10.17;100.00;98589.34;1778620;79;21029;-89
2022/09/21 08:24:47;;;;;;;10.78;7.80;;;;;;;10.39;100.00;98582.95;1783541;79;21011;-89
2022/09/21 08:27:13;;;;;;;12.70;7.58;;;;;;;10.68;100.00;98589.58;1783995;78;21068;-85
2022/09/21 08:29:39;;;;;;;15.05;9.68;;;;;;;10.74;100.00;98595.27;1787955;79;20868;-89
2022/09/21 08:32:05;;;;;;;12.43;8.28;;;;;;;10.77;100.00;98591.75;1799797;78;21065;-89
2022/09/21 08:34:31;;;;;;;13.68;9.63;;;;;;;10.72;100.00;98593.92;1798686;78;20917;-86
2022/09/21 08:36:57;;;;;;;12.13;9.20;;;;;;;10.61;100.00;98594.43;1784831;78;20961;-88
2022/09/21 08:39:23;;;;;;;11.22;8.00;;;;;;;10.60;100.00;98594.16;1784459;78;20927;-89
2022/09/21 08:42:03;;;;;;;11.60;7.85;;;;;;;10.59;100.00;98599.82;1789135;79;21114;-89
2022/09/21 08:44:39;;;;;;;12.68;9.30;;;;;;;10.60;100.00;98598.22;1791920;79;21090;-86
2022/09/21 08:47:14;;;;;;;15.43;11.43;;;;;;;10.32;100.00;98604.05;1795512;79;20994;-89
2022/09/21 08:49:40;;;;;;;13.45;9.05;;;;;;;10.40;100.00;98598.94;1787211;78;21102;-88
2022/09/21 08:52:10;;;;;;;14.68;10.03;;;;;;;10.30;100.00;98605.67;1794825;78;21007;-85
2022/09/21 08:54:58;;;;;;;14.83;11.08;;;;;;;10.24;100.00;98607.25;1792209;78;21523;-88
2022/09/21 08:57:32;;;;;;;15.08;8.50;;;;;;;10.17;100.00;98609.65;1791801;79;21476;-85
2022/09/21 08:59:58;;;;;;;14.47;10.60;;;;;;;10.19;100.00;98610.73;1798215;79;21061;-89
2022/09/21 09:02:42;;;;;;;14.33;10.63;;;;;;;10.12;100.00;98610.15;1760832;79;21069;-88
2022/09/21 09:05:20;;;;;;;15.78;10.00;;;;;;;10.06;100.00;98606.59;1794412;79;20996;-88
2022/09/21 09:08:00;;;;;;;26.90;17.20;;;;;;;9.99;100.00;98608.70;1790332;78;21111;-85
2022/09/21 09:10:44;;;;;;;15.75;10.93;;;;;;;9.98;100.00;98607.08;1799704;78;21776;-88
2022/09/21 09:13:27;;;;;;;16.12;10.28;;;;;;;10.11;100.00;98612.59;1793117;78;21097;-89
2022/09/21 09:16:26;;;;;;;14.55;9.63;;;;;;;10.10;100.00;98605.00;1780260;79;21028;-88
2022/09/21 09:18:54;;;;;;;;;;;;;;;10.09;100.00;98603.91;1762126;79;21044;-85
2022/09/21 09:21:38;;;;;;;17.92;11.33;;;;;;;10.02;100.00;98601.44;1781631;78;20184;-85
2022/09/21 09:24:12;;;;;;;14.05;9.80;;;;;;;10.16;100.00;98605.28;1785724;79;21780;-85
2022/09/21 09:26:49;;;;;;;15.55;10.85;;;;;;;10.36;100.00;98610.05;1798826;78;21564;-86
2022/09/21 09:29:42;;;;;;;14.73;9.55;;;;;;;10.44;100.00;98597.89;1792344;77;21569;-85
2022/09/21 09:32:15;;;;;;;14.80;10.10;;;;;;;10.39;100.00;98615.47;1798288;78;20981;-85
2022/09/21 09:34:55;;;;;;;13.90;9.20;;;;;;;10.41;100.00;98605.17;1784712;78;21289;-89
2022/09/21 09:37:25;;;;;;;13.28;9.85;;;;;;;10.47;100.00;98610.08;1791645;79;21436;-85
2022/09/21 09:39:55;;;;;;;11.28;7.78;;;;;;;10.66;100.00;98597.69;1787613;78;20996;-90
2022/09/21 09:42:57;;;;;;;11.30;8.25;;;;;;;11.05;100.00;98602.68;1796327;78;21022;-89
2022/09/21 09:45:41;;;;;;;9.23;7.00;;;;;;;11.34;100.00;98601.08;1806551;78;21049;-90
2022/09/21 09:48:27;;;;;;;12.75;7.70;;;;;;;11.43;100.00;98598.09;1785256;78;21140;-86
2022/09/21 09:50:53;;;;;;;9.40;6.37;;;;;;;11.55;100.00;98606.80;1782677;79;21297;-86
2022/09/21 09:53:22;;;;;;;8.15;6.20;;;;;;;11.65;99.32;98606.52;1780746;78;20874;-86
2022/09/21 09:55:53;;;;;;;9.55;5.40;;;;;;;11.72;99.77;98608.42;1779214;79;20930;-90
2022/09/21 09:58:47;;;;;;;8.98;5.90;;;;;;;11.64;97.56;98609.78;1800785;79;21332;-85
2022/09/21 10:01:40;;;;;;;7.78;5.67;;;;;;;11.65;98.88;98613.31;1714873;80;21445;-85
2022/09/21 10:04:11;;;;;;;7.20;5.37;;;;;;;11.40;98.27;98609.50;1787243;79;21605;-89
2022/09/21 10:06:37;;;;;;;8.70;5.20;;;;;;;11.25;97.52;98609.48;1790125;78;21171;-89
2022/09/21 10:09:30;;;;;;;6.45;4.80;;;;;;;11.07;98.37;98610.81;1755077;78;21462;-85
2022/09/21 10:12:04;;;;;;;8.80;5.30;;;;;;;10.99;98.75;98608.08;1774405;79;21035;-85
2022/09/21 10:14:33;;;;;;;6.45;4.50;;;;;;;10.83;99.67;98611.02;1785558;78;21108;-89
2022/09/21 10:17:04;;;;;;;5.50;3.92;;;;;;;10.89;99.91;98608.06;1745499;79;21300;-85
2022/09/21 10:19:30;;;;;;;5.03;3.45;;;;;;;10.86;100.00;98601.83;1784790;78;21841;-89
2022/09/21 10:22:01;;;;;;;4.80;3.37;;;;;;;10.94;100.00;98601.85;1773920;80;21643;-89
2022/09/21 10:24:37;;;;;;;7.45;4.47;;;;;;;10.99;100.00;98605.91;1780436;78;21061;-85
2022/09/21 10:27:11;;;;;;;7.28;4.35;;;;;;;10.92;100.00;98606.16;1783704;78;21469;-85
2022/09/21 10:29:44;;;;;;;5.58;4.00;;;;;;;10.96;100.00;98606.45;1779925;79;21544;-85
2022/09/21 10:32:19;;;;;;;5.65;4.10;;;;;;;10.80;100.00;98612.38;1782416;78;21057;-86
2022/09/21 10:35:09;;;;;;;8.70;4.55;;;;;;;10.75;100.00;98609.64;1796453;78;21101;-85
2022/09/21 10:37:52;;;;;;;6.55;4.42;;;;;;;10.74;100.00;98608.02;1783250;79;21004;-85
2022/09/21 10:40:22;;;;;;;7.97;4.28;;;;;;;10.64;100.00;98609.34;1777555;79;21024;-89
2022/09/21 10:42:50;;;;;;;6.80;4.78;;;;;;;10.51;100.00;98609.30;1766150;80;22221;-85
2022/09/21 10:45:20;;;;;;;8.23;5.53;;;;;;;10.41;100.00;98614.66;1780168;79;21081;-88
2022/09/21 10:47:56;;;;;;;13.90;5.20;;;;;;;10.35;100.00;98613.84;1796271;78;21036;-90
2022/09/21 10:50:38;;;;;;;12.53;5.90;;;;;;;10.29;100.00;98609.46;1771420;78;20965;-89
2022/09/21 10:53:27;;;;;;;9.48;6.15;;;;;;;10.24;100.00;98609.96;1812940;78;21022;-89
2022/09/21 10:56:01;;;;;;;9.08;5.78;;;;;;;10.27;100.00;98604.85;1786495;79;21262;-85
2022/09/21 10:58:28;;;;;;;10.38;6.60;;;;;;;10.24;100.00;98601.84;1773921;79;21116;-85
2022/09/21 11:00:55;;;;;;;10.40;6.60;;;;;;;10.26;100.00;98609.19;1779076;79;21126;-85
2022/09/21 11:03:46;;;;;;;9.98;6.37;;;;;;;10.26;100.00;98610.53;1760939;79;21123;-85
2022/09/21 11:06:18;;;;;;;9.65;6.80;;;;;;;10.24;100.00;98604.55;1790782;79;21540;-89
2022/09/21 11:09:02;;;;;;;10.18;6.60;;;;;;;10.16;100.00;98610.70;1792149;79;21150;-90
2022/09/21 11:11:57;;;;;;;10.80;6.47;;;;;;;10.04;100.00;98606.04;1815660;78;21049;-89
2022/09/21 11:14:46;;;;;;;12.73;7.55;;;;;;;10.03;100.00;98611.72;1792190;78;21056;-89
2022/09/21 11:17:21;;;;;;;10.38;6.87;;;;;;;10.02;100.00;98606.84;1778979;79;21073;-85
2022/09/21 11:19:54;;;;;;;10.60;6.35;;;;;;;10.03;100.00;98613.89;1781687;78;21073;-90
2022/09/21 11:22:43;;;;;;;10.15;7.58;;;;;;;9.98;100.00;98613.84;1792951;78;21888;-89
2022/09/21 11:25:35;;;;;;;11.22;8.00;;;;;;;9.94;100.00;98607.88;1809400;78;21060;-90
2022/09/21 11:28:26;;;;;;;10.43;8.13;;;;;;;9.94;100.00;98613.29;1776677;79;21079;-87
2022/09/21 11:31:01;;;;;;;12.20;7.45;;;;;;;10.01;100.00;98605.22;1748049;78;20966;-89
2022/09/21 11:33:32;;;;;;;12.55;9.25;;;;;;;10.13;100.00;98607.72;1741362;79;21053;-87
2022/09/21 11:36:22;;;;;;;10.80;7.95;;;;;;;10.26;100.00;98608.64;1777706;79;21857;-85
2022/09/21 11:38:56;;;;;;;13.08;8.45;;;;;;;10.31;100.00;98600.52;1775056;79;21037;-89
2022/09/21 11:41:44;;;;;;;11.48;7.60;;;;;;;10.43;100.00;98601.14;1760128;79;21093;-90
2022/09/21 11:44:34;;;;;;;10.13;8.33;;;;;;;10.49;100.00;98607.92;1786044;78;21030;-85
2022/09/21 11:47:23;;;;;;;11.35;8.88;;;;;;;10.68;100.00;98599.58;1777054;79;21151;-85